Time;durP1;ratioP1;P1;durP2;ratioP2;P2;SDS_P1;SDS_P2;PMS_P1;PMS_P2;Temp;Humidity;BMP_temperature;BMP_pressure;BME280_temperature;BME280_humidity;BME280_pressure;Samples;Min_cycle;Max_cycle;Signal;HPM_P1;HPM_P2
2023/02/13 00:01:12;;;;;;;;;;;;;;;-2.79;79.79;95041.22;5010670;28;19918;-47
2023/02/13 00:03:37;;;;;;;;;;;;;;;-2.78;79.99;95050.84;5010467;28;19991;-47
2023/02/13 00:06:02;;;;;;;;;;;;;;;-2.95;80.77;95053.97;5010145;28;19921;-48
2023/02/13 00:08:28;;;;;;;;;;;;;;;-2.84;80.44;95049.84;5010275;28;19952;-47
2023/02/13 00:10:53;;;;;;;;;;;;;;;-2.69;79.60;95061.06;5010599;28;19917;-46
2023/02/13 00:13:18;;;;;;;;;;;;;;;-2.63;79.81;95057.41;5010462;28;20031;-48
2023/02/13 00:15:43;;;;;;;;;;;;;;;-2.72;79.66;95057.25;5010391;28;19990;-48
2023/02/13 00:18:09;;;;;;;;;;;;;;;-2.85;80.11;95063.75;5010055;28;19914;-47
2023/02/13 00:20:34;;;;;;;;;;;;;;;-2.85;81.06;95061.06;5010328;28;19918;-49
2023/02/13 00:22:59;;;;;;;;;;;;;;;-2.72;80.85;95061.91;5010083;28;19917;-47
2023/02/13 00:25:24;;;;;;;;;;;;;;;-2.56;80.48;95059.19;5009989;28;19918;-50
2023/02/13 00:27:50;;;;;;;;;;;;;;;-2.60;79.28;95061.97;5026903;28;20328;-49
2023/02/13 00:30:15;;;;;;;;;;;;;;;-2.75;78.20;95068.16;5029613;28;19917;-48
2023/02/13 00:32:41;;;;;;;;;;;;;;;-3.14;79.17;95074.50;5016980;28;19924;-48
2023/02/13 00:35:06;;;;;;;;;;;;;;;-3.24;79.78;95070.84;5029308;28;20011;-48
2023/02/13 00:37:32;;;;;;;;;;;;;;;-3.30;79.86;95074.47;5009168;28;20409;-47
2023/02/13 00:39:57;;;;;;;;;;;;;;;-3.18;79.78;95076.50;5009748;28;20000;-47
2023/02/13 00:42:25;;;;;;;;;;;;;;;-3.11;79.92;95069.00;5010159;28;19917;-48
2023/02/13 00:44:50;;;;;;;;;;;;;;;-2.97;78.83;95075.25;5009692;28;19995;-47
2023/02/13 00:47:15;;;;;;;;;;;;;;;-3.30;79.66;95080.66;5009405;28;20022;-47
2023/02/13 00:49:41;;;;;;;;;;;;;;;-3.31;79.96;95075.66;5009535;28;20016;-48
2023/02/13 00:52:06;;;;;;;;;;;;;;;-3.30;79.80;95077.94;5009612;28;19913;-48
2023/02/13 00:54:31;;;;;;;;;;;;;;;-3.59;80.83;95085.13;5009801;28;19918;-48
2023/02/13 00:56:56;;;;;;;;;;;;;;;-3.74;82.29;95080.44;5013003;28;19920;-48
2023/02/13 00:59:22;;;;;;;;;;;;;;;-3.57;81.38;95074.66;5029281;28;19923;-47
2023/02/13 01:01:47;;;;;;;;;;;;;;;-3.83;81.54;95072.16;5029133;28;19917;-47
2023/02/13 01:04:12;;;;;;;;;;;;;;;-3.71;82.14;95079.63;5029593;28;19921;-48
2023/02/13 01:06:38;;;;;;;;;;;;;;;-3.87;82.43;95080.31;5027861;28;19917;-49
2023/02/13 01:09:03;;;;;;;;;;;;;;;-3.88;81.95;95076.13;5029153;28;20634;-48
2023/02/13 01:11:28;;;;;;;;;;;;;;;-3.74;82.45;95081.22;5028747;28;19916;-48
2023/02/13 01:13:53;;;;;;;;;;;;;;;-3.60;81.55;95090.97;5029182;28;19970;-48
2023/02/13 01:16:19;;;;;;;;;;;;;;;-3.75;80.95;95085.09;5010425;28;19964;-49
2023/02/13 01:18:44;;;;;;;;;;;;;;;-3.58;81.63;95091.28;5008942;28;19985;-49
2023/02/13 01:21:14;;;;;;;;;;;;;;;-3.85;81.19;95089.53;5008887;28;19968;-47
2023/02/13 01:23:39;;;;;;;;;;;;;;;-3.77;81.85;95098.25;5007802;28;19918;-48
2023/02/13 01:26:05;;;;;;;;;;;;;;;-3.69;80.64;95094.22;5012001;28;19924;-49
2023/02/13 01:28:30;;;;;;;;;;;;;;;-3.58;80.07;95091.28;5028324;28;20016;-49
2023/02/13 01:30:56;;;;;;;;;;;;;;;-3.67;80.04;95099.19;5025590;28;20004;-47
2023/02/13 01:33:22;;;;;;;;;;;;;;;-4.09;82.29;95098.09;5013426;28;19921;-47
2023/02/13 01:35:47;;;;;;;;;;;;;;;-3.88;81.93;95097.69;5009179;28;19920;-48
2023/02/13 01:38:12;;;;;;;;;;;;;;;-3.68;81.49;95092.28;5008345;28;20023;-48
2023/02/13 01:40:43;;;;;;;;;;;;;;;-3.80;81.87;95093.66;5008360;28;19914;-47
2023/02/13 01:43:08;;;;;;;;;;;;;;;-3.88;82.92;95097.69;5008343;28;19914;-47
2023/02/13 01:45:33;;;;;;;;;;;;;;;-3.68;82.99;95100.38;5007838;28;20329;-48
2023/02/13 01:48:00;;;;;;;;;;;;;;;-3.46;81.75;95102.19;5008137;28;20389;-48
2023/02/13 01:50:25;;;;;;;;;;;;;;;-3.32;80.70;95099.22;5008471;28;19993;-47
2023/02/13 01:53:11;;;;;;;;;;;;;;;-3.42;80.78;95088.66;5008635;28;20012;-48
2023/02/13 01:55:37;;;;;;;;;;;;;;;-3.51;81.38;95088.44;5008122;28;20013;-48
2023/02/13 01:58:07;;;;;;;;;;;;;;;-3.51;81.29;95094.59;5011017;28;19921;-49
2023/02/13 02:00:32;;;;;;;;;;;;;;;-3.54;81.88;95090.03;5027936;28;20393;-48
2023/02/13 02:03:00;;;;;;;;;;;;;;;-3.72;82.11;95095.03;5026651;28;19913;-49
2023/02/13 02:05:26;;;;;;;;;;;;;;;-3.67;82.13;95091.88;5026908;28;19917;-49
2023/02/13 02:07:52;;;;;;;;;;;;;;;-3.52;81.71;95090.38;5028113;28;19970;-48
2023/02/13 02:10:17;;;;;;;;;;;;;;;-3.37;80.85;95093.53;5027717;28;19936;-49
2023/02/13 02:13:06;;;;;;;;;;;;;;;-3.14;80.99;95094.16;5027855;28;20004;-47
2023/02/13 02:15:31;;;;;;;;;;;;;;;-3.39;81.13;95093.19;5007970;28;19964;-48
2023/02/13 02:17:56;;;;;;;;;;;;;;;-3.55;81.79;95093.91;5007996;28;19917;-49
2023/02/13 02:20:40;;;;;;;;;;;;;;;-3.52;82.30;95090.38;5008061;28;19921;-49
2023/02/13 02:23:14;;;;;;;;;;;;;;;-3.32;81.53;95088.41;5007985;28;19918;-47
2023/02/13 02:25:39;;;;;;;;;;;;;;;-3.46;81.67;95090.63;5006940;28;19924;-48
2023/02/13 02:28:07;;;;;;;;;;;;;;;-3.71;82.93;95091.19;5027002;28;20004;-48
2023/02/13 02:30:33;;;;;;;;;;;;;;;-3.62;82.67;95085.97;5027525;28;20382;-47
2023/02/13 02:32:58;;;;;;;;;;;;;;;-3.66;82.93;95096.06;5021144;28;19961;-48
2023/02/13 02:35:33;;;;;;;;;;;;;;;-3.75;83.66;95098.59;5007737;28;20697;-47
2023/02/13 02:38:15;;;;;;;;;;;;;;;-3.60;83.70;95099.81;5006928;28;19921;-48
2023/02/13 02:40:46;;;;;;;;;;;;;;;-3.51;84.19;95101.94;5006183;28;20459;-51
2023/02/13 02:43:20;;;;;;;;;;;;;;;-3.23;83.97;95104.03;5007667;28;20482;-48
2023/02/13 02:45:53;;;;;;;;;;;;;;;-3.17;82.88;95107.75;5008187;28;20342;-47
2023/02/13 02:51:17;;;;;;;;;;;;;;;-3.12;81.02;95108.00;5007657;28;20470;-48
2023/02/13 02:53:45;;;;;;;;;;;;;;;-3.13;81.34;95111.13;5007536;28;20424;-47
2023/02/13 02:56:46;;;;;;;;;;;;;;;-3.12;81.78;95107.25;5007836;28;19933;-48
2023/02/13 03:07:31;;;;;;;;;;;;;;;-2.67;80.64;95113.53;5010828;28;19920;-47
2023/02/13 03:15:28;;;;;;;;;;;;;;;-2.90;82.13;95126.44;5022480;28;19975;-51
2023/02/13 03:23:37;;;;;;;;;;;;;;;-3.01;81.59;95115.13;5030869;28;20011;-49
2023/02/13 03:26:02;;;;;;;;;;;;;;;-2.80;81.56;95111.91;5027928;28;19913;-49
2023/02/13 03:31:37;;;;;;;;;;;;;;;-2.65;79.39;95107.69;5025519;28;19996;-48
2023/02/13 03:34:22;;;;;;;;;;;;;;;-2.91;80.49;95116.81;5010875;28;20525;-48
2023/02/13 03:39:39;;;;;;;;;;;;;;;-2.87;81.28;95112.06;5011061;28;19920;-48
2023/02/13 03:42:05;;;;;;;;;;;;;;;-2.82;81.64;95116.97;5009769;28;19917;-48
2023/02/13 03:44:32;;;;;;;;;;;;;;;-2.82;81.99;95120.44;5010586;28;19922;-48
2023/02/13 03:46:58;;;;;;;;;;;;;;;-2.56;81.33;95113.25;5009141;28;19917;-47
2023/02/13 03:52:23;;;;;;;;;;;;;;;-2.62;81.89;95123.81;5010563;28;19927;-47
2023/02/13 04:00:24;;;;;;;;;;;;;;;-2.61;81.90;95127.28;5009276;28;19921;-48
2023/02/13 04:02:51;;;;;;;;;;;;;;;-2.35;81.98;95126.25;5009091;28;19949;-47
2023/02/13 04:05:19;;;;;;;;;;;;;;;-2.23;81.81;95130.22;5010210;28;20421;-48
2023/02/13 04:07:44;;;;;;;;;;;;;;;-2.14;81.35;95123.00;5009402;28;20293;-49
2023/02/13 04:10:10;;;;;;;;;;;;;;;-2.20;79.92;95129.34;5010360;28;19999;-48
2023/02/13 04:12:35;;;;;;;;;;;;;;;-2.09;79.61;95127.88;5010114;28;20003;-48
2023/02/13 04:15:39;;;;;;;;;;;;;;;-2.43;80.38;95131.09;5017991;28;20377;-48
2023/02/13 04:18:12;;;;;;;;;;;;;;;-2.20;80.84;95132.81;4968488;28;19946;-49
2023/02/13 04:20:38;;;;;;;;;;;;;;;-2.45;81.02;95138.84;4952075;28;20390;-48
2023/02/13 04:23:07;;;;;;;;;;;;;;;-2.28;81.07;95130.72;4989639;28;19920;-49
2023/02/13 04:25:33;;;;;;;;;;;;;;;-2.39;81.25;95133.69;5025268;28;19921;-50
2023/02/13 04:27:58;;;;;;;;;;;;;;;-2.28;81.10;95125.31;5008598;28;19914;-48
2023/02/13 04:30:24;;;;;;;;;;;;;;;-2.50;82.43;95122.38;5009807;28;19913;-47
2023/02/13 04:32:50;;;;;;;;;;;;;;;-2.46;83.23;95131.16;5020422;28;20040;-48
2023/02/13 04:35:16;;;;;;;;;;;;;;;-2.57;83.66;95130.66;5009724;28;20686;-48
2023/02/13 04:37:42;;;;;;;;;;;;;;;-2.63;83.84;95127.72;5009867;28;20065;-48
2023/02/13 04:40:07;;;;;;;;;;;;;;;-2.69;84.26;95129.41;5009759;28;19953;-48
2023/02/13 04:42:33;;;;;;;;;;;;;;;-2.60;84.75;95126.84;5009600;28;20407;-50
2023/02/13 04:44:58;;;;;;;;;;;;;;;-2.52;85.20;95130.91;5010119;28;19931;-48
2023/02/13 04:47:23;;;;;;;;;;;;;;;-2.32;84.57;95136.97;5009297;28;20309;-47
2023/02/13 04:49:48;;;;;;;;;;;;;;;-2.45;85.12;95138.84;5009538;28;20016;-47
2023/02/13 04:52:14;;;;;;;;;;;;;;;-2.39;85.20;95137.16;5009414;28;19920;-49
2023/02/13 04:54:39;;;;;;;;;;;;;;;-2.25;84.85;95132.59;5009680;28;19991;-48
2023/02/13 04:57:05;;;;;;;;;;;;;;;-2.40;85.32;95127.50;5009485;28;20024;-48
2023/02/13 04:59:30;;;;;;;;;;;;;;;-2.50;86.26;95123.16;5025068;28;19922;-48
2023/02/13 05:01:55;;;;;;;;;;;;;;;-2.30;86.56;95137.28;5029584;28;20636;-47
2023/02/13 05:04:20;;;;;;;;;;;;;;;-2.08;85.71;95137.50;5029007;28;19936;-49
2023/02/13 05:06:46;;;;;;;;;;;;;;;-2.16;84.66;95138.88;5029057;28;19916;-48
2023/02/13 05:09:11;;;;;;;;;;;;;;;-1.99;84.32;95128.81;5028926;28;19947;-50
2023/02/13 05:11:36;;;;;;;;;;;;;;;-2.02;83.93;95146.66;5028944;28;19923;-48
2023/02/13 05:14:02;;;;;;;;;;;;;;;-2.01;83.97;95141.97;5028933;28;19956;-47
2023/02/13 05:16:27;;;;;;;;;;;;;;;-2.11;84.31;95148.44;5009216;28;19928;-48
2023/02/13 05:18:53;;;;;;;;;;;;;;;-1.95;84.41;95141.03;5009368;28;19914;-48
2023/02/13 05:24:03;;;;;;;;;;;;;;;-1.72;84.02;95143.53;5028121;28;20404;-48
2023/02/13 05:26:28;;;;;;;;;;;;;;;-1.82;84.49;95147.25;5022345;28;19965;-48
2023/02/13 05:31:37;;;;;;;;;;;;;;;-1.67;84.05;95153.06;5016188;28;19924;-47
2023/02/13 05:34:02;;;;;;;;;;;;;;;-1.81;85.00;95148.78;5012082;28;20501;-49
2023/02/13 05:36:27;;;;;;;;;;;;;;;-1.75;85.37;95152.50;5008675;28;20016;-48
2023/02/13 05:38:53;;;;;;;;;;;;;;;-1.68;85.22;95155.00;5009379;28;20378;-48
2023/02/13 05:41:18;;;;;;;;;;;;;;;-1.64;84.72;95158.38;5008627;28;19913;-48
2023/02/13 05:43:43;;;;;;;;;;;;;;;-1.61;84.62;95162.94;5008446;28;19924;-49
2023/02/13 05:46:09;;;;;;;;;;;;;;;-1.47;84.64;95155.63;5008781;28;19913;-47
2023/02/13 05:48:34;;;;;;;;;;;;;;;-1.47;84.54;95159.06;5008777;28;19967;-47
2023/02/13 05:50:59;;;;;;;;;;;;;;;-1.42;84.91;95163.19;5008454;28;19961;-49
2023/02/13 05:53:25;;;;;;;;;;;;;;;-1.35;84.52;95163.00;5008364;28;19917;-48
2023/02/13 05:55:51;;;;;;;;;;;;;;;-1.38;85.05;95159.19;5008140;28;19921;-49
2023/02/13 05:58:16;;;;;;;;;;;;;;;-1.39;85.82;95167.78;5016612;28;19957;-49
2023/02/13 06:00:42;;;;;;;;;;;;;;;-1.36;86.10;95166.88;5008530;28;19983;-48
2023/02/13 06:03:07;;;;;;;;;;;;;;;-1.35;85.75;95174.59;5008260;28;19940;-51
2023/02/13 06:05:32;;;;;;;;;;;;;;;-1.39;86.00;95175.91;5008451;28;19913;-49
2023/02/13 06:07:57;;;;;;;;;;;;;;;-1.23;85.92;95171.16;5008263;28;19971;-51
2023/02/13 06:10:23;;;;;;;;;;;;;;;-1.29;86.03;95182.94;5007783;28;20306;-48
2023/02/13 06:12:48;;;;;;;;;;;;;;;-1.49;86.68;95177.69;5007972;28;19922;-49
2023/02/13 06:15:13;;;;;;;;;;;;;;;-1.45;87.66;95191.16;5008498;28;19928;-49
2023/02/13 06:17:39;;;;;;;;;;;;;;;-1.54;87.90;95191.78;5018216;28;20571;-47
2023/02/13 06:20:04;;;;;;;;;;;;;;;-1.30;87.98;95186.88;5028026;28;19913;-49
2023/02/13 06:22:30;;;;;;;;;;;;;;;-1.17;86.37;95195.78;5027772;28;20608;-49
2023/02/13 06:24:55;;;;;;;;;;;;;;;-1.17;86.39;95190.38;5027639;28;20278;-50
2023/02/13 06:27:20;;;;;;;;;;;;;;;-1.28;86.70;95193.38;5014783;28;19914;-49
2023/02/13 06:29:46;;;;;;;;;;;;;;;-1.10;86.72;95192.84;5007751;28;20448;-48
2023/02/13 06:32:12;;;;;;;;;;;;;;;-1.01;86.33;95196.47;5018240;28;19917;-48
2023/02/13 06:34:38;;;;;;;;;;;;;;;-1.00;85.65;95197.22;5006989;28;20325;-48
2023/02/13 06:37:03;;;;;;;;;;;;;;;-0.91;85.27;95189.22;5007646;28;19914;-49
2023/02/13 06:39:28;;;;;;;;;;;;;;;-0.89;85.58;95189.53;5007554;28;19917;-48
2023/02/13 06:41:53;;;;;;;;;;;;;;;-1.07;86.39;95192.75;5007811;28;19914;-48
2023/02/13 06:44:19;;;;;;;;;;;;;;;-1.03;86.43;95198.06;5007867;28;19913;-49
2023/02/13 06:46:44;;;;;;;;;;;;;;;-0.88;86.14;95193.75;5007764;28;20517;-48
2023/02/13 06:49:09;;;;;;;;;;;;;;;-0.71;84.92;95197.16;5007729;28;19913;-48
2023/02/13 06:51:34;;;;;;;;;;;;;;;-0.72;84.26;95190.19;5007588;28;20390;-48
2023/02/13 06:54:00;;;;;;;;;;;;;;;-0.80;84.70;95195.06;5007436;28;19918;-48
2023/02/13 06:56:25;;;;;;;;;;;;;;;-0.84;84.79;95194.41;5007786;28;20008;-48
2023/02/13 06:58:50;;;;;;;;;;;;;;;-0.86;84.75;95197.56;5016186;28;20441;-48
2023/02/13 07:01:16;;;;;;;;;;;;;;;-0.82;84.85;95192.78;5007707;28;19972;-49
2023/02/13 07:03:41;;;;;;;;;;;;;;;-0.54;83.92;95196.59;5007331;28;20321;-48
2023/02/13 07:06:06;;;;;;;;;;;;;;;-0.94;84.24;95196.25;5007723;28;20005;-48
2023/02/13 07:08:31;;;;;;;;;;;;;;;-0.79;84.76;95197.34;5007307;28;19918;-49
2023/02/13 07:10:57;;;;;;;;;;;;;;;-0.59;84.52;95194.44;5007708;28;19917;-48
2023/02/13 07:13:22;;;;;;;;;;;;;;;-0.45;83.84;95207.53;5013288;28;20412;-48
2023/02/13 07:15:47;;;;;;;;;;;;;;;-0.49;83.88;95201.47;5013122;28;19921;-48
2023/02/13 07:18:12;;;;;;;;;;;;;;;-0.48;83.50;95196.81;5007185;28;19926;-48
2023/02/13 07:20:38;;;;;;;;;;;;;;;-0.49;83.07;95204.19;5007659;28;20000;-48
2023/02/13 07:23:04;;;;;;;;;;;;;;;-0.48;83.00;95203.00;5007598;28;19917;-48
2023/02/13 07:25:29;;;;;;;;;;;;;;;-0.67;82.97;95198.53;5007439;28;19957;-49
2023/02/13 07:27:54;;;;;;;;;;;;;;;-0.84;84.52;95206.00;5007510;28;19924;-47
2023/02/13 07:30:20;;;;;;;;;;;;;;;-0.61;84.30;95202.25;5006055;28;20021;-48
2023/02/13 07:32:45;;;;;;;;;;;;;;;-0.35;83.63;95209.19;5017865;28;19913;-48
2023/02/13 07:35:10;;;;;;;;;;;;;;;-0.40;83.53;95204.28;5006939;28;19926;-50
2023/02/13 07:37:36;;;;;;;;;;;;;;;-0.29;83.75;95207.44;5007325;28;20027;-48
2023/02/13 07:40:03;;;;;;;;;;;;;;;-0.19;82.62;95200.91;5007394;28;19918;-48
2023/02/13 07:42:28;;;;;;;;;;;;;;;-0.09;82.46;95197.06;5007276;28;19960;-48
2023/02/13 07:44:53;;;;;;;;;;;;;;;0.03;81.74;95195.53;5007516;28;20393;-47
2023/02/13 07:47:18;;;;;;;;;;;;;;;-0.07;82.19;95197.41;5009360;28;19920;-49
2023/02/13 07:49:44;;;;;;;;;;;;;;;0.11;80.90;95202.25;5010745;28;19913;-48
2023/02/13 07:52:09;;;;;;;;;;;;;;;0.11;80.64;95196.81;5010821;28;20005;-48
2023/02/13 07:54:35;;;;;;;;;;;;;;;0.24;80.29;95189.38;5010886;28;19913;-49
2023/02/13 07:57:00;;;;;;;;;;;;;;;0.37;79.53;95195.53;5015079;28;19925;-48
2023/02/13 07:59:26;;;;;;;;;;;;;;;0.29;79.93;95201.66;5015379;28;20000;-48
2023/02/13 08:01:51;;;;;;;;;;;;;;;0.36;79.58;95198.69;5010779;28;19976;-48
2023/02/13 08:04:16;;;;;;;;;;;;;;;0.41;78.84;95201.59;5010683;28;19918;-50
2023/02/13 08:06:42;;;;;;;;;;;;;;;0.36;79.52;95195.97;5010337;28;20381;-49
2023/02/13 08:11:53;;;;;;;;;;;;;;;0.37;79.07;95197.50;5028970;28;19935;-48
2023/02/13 08:14:23;;;;;;;;;;;;;;;0.46;79.03;95201.03;5028478;28;20400;-49
2023/02/13 08:16:48;;;;;;;;;;;;;;;0.69;78.36;95199.88;5029980;28;20355;-48
2023/02/13 08:19:13;;;;;;;;;;;;;;;0.68;77.52;95209.22;5028500;28;19916;-48
2023/02/13 08:21:39;;;;;;;;;;;;;;;0.76;77.26;95197.66;5029774;28;19917;-49
2023/02/13 08:24:05;;;;;;;;;;;;;;;0.74;77.34;95202.00;5030001;28;19921;-50
2023/02/13 08:26:30;;;;;;;;;;;;;;;0.71;77.42;95209.06;5023367;28;20642;-48
2023/02/13 08:28:56;;;;;;;;;;;;;;;0.89;77.17;95205.72;5008500;28;19914;-47
2023/02/13 08:31:21;;;;;;;;;;;;;;;0.86;76.20;95214.78;5015262;28;19920;-49
2023/02/13 08:33:46;;;;;;;;;;;;;;;0.97;75.95;95212.44;5014937;28;20327;-48
2023/02/13 08:36:11;;;;;;;;;;;;;;;0.88;76.68;95209.66;5009577;28;19925;-48
2023/02/13 08:38:37;;;;;;;;;;;;;;;1.14;75.67;95202.88;5010093;28;19992;-50
2023/02/13 08:41:02;;;;;;;;;;;;;;;1.32;74.48;95200.22;5009562;28;19917;-49
2023/02/13 08:43:27;;;;;;;;;;;;;;;1.35;74.34;95210.22;5009578;28;19921;-48
2023/02/13 08:45:53;;;;;;;;;;;;;;;1.26;75.38;95206.69;5009999;28;20004;-48
2023/02/13 08:48:18;;;;;;;;;;;;;;;1.49;73.30;95201.50;5009334;28;19917;-48
2023/02/13 08:50:43;;;;;;;;;;;;;;;1.74;73.06;95199.78;5009635;28;19918;-48
2023/02/13 08:53:08;;;;;;;;;;;;;;;2.00;72.32;95199.13;5009468;28;19913;-48
2023/02/13 08:55:34;;;;;;;;;;;;;;;2.00;71.55;95198.34;5009502;28;19921;-49
2023/02/13 08:58:02;;;;;;;;;;;;;;;1.98;71.21;95195.31;5017234;28;19914;-49
2023/02/13 09:00:28;;;;;;;;;;;;;;;1.85;71.32;95197.41;5009506;28;19979;-48
2023/02/13 09:02:53;;;;;;;;;;;;;;;1.79;71.27;95194.53;5009166;28;19921;-49
2023/02/13 09:05:19;;;;;;;;;;;;;;;1.88;71.32;95199.25;5010670;28;19913;-49
2023/02/13 09:07:44;;;;;;;;;;;;;;;1.45;73.35;95200.91;5029146;28;20398;-48
2023/02/13 09:10:09;;;;;;;;;;;;;;;1.78;72.16;95201.16;5029068;28;19913;-48
2023/02/13 09:12:35;;;;;;;;;;;;;;;1.83;71.84;95202.53;5028814;28;20276;-49
2023/02/13 09:15:00;;;;;;;;;;;;;;;1.94;71.70;95194.72;5021279;28;19921;-49
2023/02/13 09:17:25;;;;;;;;;;;;;;;2.03;70.98;95198.22;5009191;28;19918;-49
2023/02/13 09:19:50;;;;;;;;;;;;;;;1.89;71.90;95195.28;5009366;28;20405;-48
2023/02/13 09:22:16;;;;;;;;;;;;;;;2.15;70.90;95194.59;5009035;28;20412;-48
2023/02/13 09:24:41;;;;;;;;;;;;;;;1.84;71.29;95199.38;5009182;28;19996;-48
2023/02/13 09:27:07;;;;;;;;;;;;;;;1.88;71.47;95197.28;5015691;28;19917;-48
2023/02/13 09:29:33;;;;;;;;;;;;;;;2.07;71.27;95198.06;5008757;28;19917;-49
2023/02/13 09:31:58;;;;;;;;;;;;;;;2.36;70.37;95187.50;5019009;28;19917;-49
2023/02/13 09:34:23;;;;;;;;;;;;;;;2.68;69.34;95184.19;5008967;28;19929;-49
2023/02/13 09:36:52;;;;;;;;;;;;;;;2.52;69.17;95181.75;5008916;28;19921;-49
2023/02/13 09:39:17;;;;;;;;;;;;;;;2.74;68.09;95190.53;5008908;28;19918;-49
2023/02/13 09:41:43;;;;;;;;;;;;;;;2.59;68.39;95181.47;5009165;28;20449;-50
2023/02/13 09:44:33;;;;;;;;;;;;;;;2.62;68.71;95179.78;5007209;28;20380;-50
2023/02/13 09:47:06;;;;;;;;;;;;;;;3.14;66.95;95176.66;5009002;28;20039;-49
2023/02/13 09:49:32;;;;;;;;;;;;;;;3.37;66.11;95169.78;5008648;28;19945;-48
2023/02/13 09:51:58;;;;;;;;;;;;;;;3.19;66.25;95172.56;5007450;28;19940;-48
2023/02/13 09:54:25;;;;;;;;;;;;;;;3.27;66.14;95169.06;5008737;28;19918;-49
2023/02/13 09:56:53;;;;;;;;;;;;;;;3.44;66.03;95161.28;5007520;28;19925;-49
2023/02/13 09:59:30;;;;;;;;;;;;;;;3.71;64.85;95161.16;5022409;28;19917;-49
2023/02/13 10:01:56;;;;;;;;;;;;;;;3.69;64.51;95156.16;5023635;28;19953;-49
2023/02/13 10:04:30;;;;;;;;;;;;;;;4.10;62.74;95153.78;5008569;28;20006;-48
2023/02/13 10:07:16;;;;;;;;;;;;;;;4.18;62.32;95149.50;5008153;28;19917;-49
2023/02/13 10:10:01;;;;;;;;;;;;;;;4.53;61.78;95148.47;5006812;28;20023;-49
2023/02/13 10:12:29;;;;;;;;;;;;;;;4.71;59.47;95147.56;5006938;28;19937;-50
2023/02/13 10:15:13;;;;;;;;;;;;;;;5.03;59.99;95143.91;5013203;28;19951;-49
2023/02/13 10:17:40;;;;;;;;;;;;;;;4.93;59.43;95139.75;5027118;28;19921;-49
2023/02/13 10:20:09;;;;;;;;;;;;;;;4.82;59.83;95139.56;5027458;28;20404;-50
2023/02/13 10:22:36;;;;;;;;;;;;;;;4.94;60.03;95137.75;5025967;28;19923;-50
2023/02/13 10:25:19;;;;;;;;;;;;;;;4.85;59.72;95127.66;5027838;28;19943;-49
2023/02/13 10:27:55;;;;;;;;;;;;;;;4.74;59.27;95129.44;5011271;28;20392;-50
2023/02/13 10:30:21;;;;;;;;;;;;;;;4.85;59.53;95121.44;5006738;28;19925;-49
2023/02/13 10:32:50;;;;;;;;;;;;;;;4.79;59.22;95131.50;5007251;28;19972;-49
2023/02/13 10:35:16;;;;;;;;;;;;;;;5.27;59.83;95122.66;5006454;28;20004;-49
2023/02/13 10:37:41;;;;;;;;;;;;;;;5.65;57.91;95118.97;5007758;28;20387;-48
2023/02/13 10:40:09;;;;;;;;;;;;;;;6.06;56.93;95106.88;5006944;28;19917;-49
2023/02/13 10:42:34;;;;;;;;;;;;;;;6.43;56.07;95104.31;5006478;28;20398;-50
2023/02/13 10:45:02;;;;;;;;;;;;;;;6.85;54.02;95112.78;5007724;28;19979;-49
2023/02/13 10:47:40;;;;;;;;;;;;;;;7.04;53.00;95099.47;5008123;28;20064;-49
2023/02/13 10:50:08;;;;;;;;;;;;;;;6.67;52.82;95098.63;5007965;28;19913;-48
2023/02/13 10:52:42;;;;;;;;;;;;;;;6.65;54.10;95092.84;5007676;28;19920;-48
2023/02/13 10:55:20;;;;;;;;;;;;;;;6.85;53.59;95090.06;5008137;28;19917;-49
2023/02/13 10:58:04;;;;;;;;;;;;;;;6.95;53.01;95085.16;5007975;28;19917;-48
2023/02/13 11:00:48;;;;;;;;;;;;;;;7.76;50.93;95082.75;5007923;28;19917;-49
2023/02/13 11:03:23;;;;;;;;;;;;;;;8.63;49.36;95078.94;5007653;28;19918;-48
2023/02/13 11:05:49;;;;;;;;;;;;;;;9.21;46.38;95080.03;5006243;28;20394;-50
2023/02/13 11:08:22;;;;;;;;;;;;;;;9.35;47.00;95076.28;5006909;28;20052;-50
2023/02/13 11:10:47;;;;;;;;;;;;;;;10.90;45.03;95072.31;5007522;28;20358;-49
2023/02/13 11:13:14;;;;;;;;;;;;;;;11.52;40.73;95060.28;5007715;28;19971;-50
2023/02/13 11:15:39;;;;;;;;;;;;;;;10.65;42.51;95061.13;5020210;28;19921;-49
2023/02/13 11:18:16;;;;;;;;;;;;;;;10.68;42.73;95060.13;5026204;28;20000;-49
2023/02/13 11:20:43;;;;;;;;;;;;;;;9.15;44.65;95055.22;5026217;28;19913;-50
2023/02/13 11:23:26;;;;;;;;;;;;;;;8.64;45.29;95052.91;5031235;28;20617;-49
2023/02/13 11:25:54;;;;;;;;;;;;;;;7.91;49.22;95050.34;5029932;28;19917;-48
2023/02/13 11:28:19;;;;;;;;;;;;;;;9.16;45.46;95042.19;5009763;28;19918;-51
2023/02/13 11:30:45;;;;;;;;;;;;;;;10.26;44.10;95037.75;5011893;28;19920;-49
2023/02/13 11:33:16;;;;;;;;;;;;;;;10.82;43.02;95025.13;5021306;28;20567;-50
2023/02/13 11:35:42;;;;;;;;;;;;;;;10.61;42.84;95027.50;5011233;28;19917;-49
2023/02/13 11:38:10;;;;;;;;;;;;;;;11.46;42.13;95023.63;5010257;28;19918;-50
2023/02/13 11:40:36;;;;;;;;;;;;;;;11.77;39.45;95027.88;5011035;28;19913;-49
2023/02/13 11:43:01;;;;;;;;;;;;;;;11.70;40.16;95015.38;5009752;28;19967;-50
2023/02/13 11:45:27;;;;;;;;;;;;;;;11.83;39.49;95021.03;5011397;28;19914;-49
2023/02/13 11:47:55;;;;;;;;;;;;;;;11.20;40.30;95010.28;5010963;28;19925;-49
2023/02/13 11:50:23;;;;;;;;;;;;;;;11.62;40.82;95008.13;5011311;28;19921;-49
2023/02/13 11:53:06;;;;;;;;;;;;;;;11.24;41.04;94998.94;5010995;28;19917;-48
2023/02/13 11:55:31;;;;;;;;;;;;;;;10.77;42.73;94997.53;5009580;28;19996;-50
2023/02/13 11:58:01;;;;;;;;;;;;;;;11.11;40.80;94987.75;5019447;28;20433;-49
2023/02/13 12:00:38;;;;;;;;;;;;;;;10.93;42.08;94989.16;5010694;28;19913;-50
2023/02/13 12:03:23;;;;;;;;;;;;;;;11.95;40.39;94989.19;5011146;28;20327;-50
2023/02/13 12:06:15;;;;;;;;;;;;;;;11.55;39.65;94983.81;5010476;28;19960;-49
2023/02/13 12:08:41;;;;;;;;;;;;;;;11.41;41.85;94974.66;5006696;28;20003;-50
2023/02/13 12:11:19;;;;;;;;;;;;;;;11.39;41.12;94977.19;5009566;28;20536;-48
2023/02/13 12:13:44;;;;;;;;;;;;;;;10.76;42.44;94968.41;5009451;28;19921;-49
2023/02/13 12:16:12;;;;;;;;;;;;;;;10.09;43.53;94974.28;5022805;28;19931;-49
2023/02/13 12:18:39;;;;;;;;;;;;;;;9.83;42.81;94971.16;5009444;28;19913;-48
2023/02/13 12:21:08;;;;;;;;;;;;;;;10.20;42.97;94960.47;5009367;28;19918;-49
2023/02/13 12:23:34;;;;;;;;;;;;;;;10.17;44.43;94955.22;5010408;28;19913;-49
2023/02/13 12:26:28;;;;;;;;;;;;;;;10.77;44.06;94950.56;5012162;28;19917;-49
2023/02/13 12:28:54;;;;;;;;;;;;;;;10.45;43.55;94953.81;5012637;28;20440;-49
2023/02/13 12:31:19;;;;;;;;;;;;;;;9.96;44.15;94954.81;5029444;28;19972;-49
2023/02/13 12:33:44;;;;;;;;;;;;;;;9.83;43.46;94952.56;5014251;28;19932;-50
2023/02/13 12:36:09;;;;;;;;;;;;;;;9.48;45.14;94959.97;5010660;28;20436;-49
2023/02/13 12:38:53;;;;;;;;;;;;;;;9.23;44.80;94955.50;5009912;28;19925;-49
2023/02/13 12:41:22;;;;;;;;;;;;;;;8.84;46.70;94942.53;5009986;28;19963;-48
2023/02/13 12:43:51;;;;;;;;;;;;;;;9.04;45.83;94952.53;5009330;28;19963;-48
2023/02/13 12:46:21;;;;;;;;;;;;;;;9.23;47.40;94947.22;5009895;28;20008;-50
2023/02/13 12:48:52;;;;;;;;;;;;;;;9.39;46.43;94941.72;5008558;28;19913;-48
2023/02/13 12:51:21;;;;;;;;;;;;;;;9.43;44.97;94933.94;5009861;28;19924;-49
2023/02/13 12:53:46;;;;;;;;;;;;;;;9.79;45.39;94938.31;5009819;28;19917;-49
2023/02/13 12:56:11;;;;;;;;;;;;;;;9.50;47.12;94932.66;5028583;28;19928;-49
2023/02/13 12:58:49;;;;;;;;;;;;;;;9.59;46.03;94929.63;5029681;28;19913;-48
2023/02/13 13:01:25;;;;;;;;;;;;;;;9.37;46.95;94921.41;5029695;28;19917;-50
2023/02/13 13:04:03;;;;;;;;;;;;;;;9.60;45.91;94929.09;5028435;28;19927;-49
2023/02/13 13:06:37;;;;;;;;;;;;;;;8.87;46.20;94924.25;5029565;28;19924;-50
2023/02/13 13:09:05;;;;;;;;;;;;;;;9.00;46.59;94916.97;5029512;28;20317;-49
2023/02/13 13:11:33;;;;;;;;;;;;;;;9.00;47.04;94914.22;5029790;28;19921;-48
2023/02/13 13:14:05;;;;;;;;;;;;;;;9.09;46.64;94910.47;5028859;28;19921;-48
2023/02/13 13:16:45;;;;;;;;;;;;;;;9.12;46.15;94901.91;5007576;28;20444;-49
2023/02/13 13:19:20;;;;;;;;;;;;;;;8.75;46.83;94903.50;5008308;28;20020;-49
2023/02/13 13:22:06;;;;;;;;;;;;;;;9.23;46.80;94903.16;5008913;28;19918;-49
2023/02/13 13:24:37;;;;;;;;;;;;;;;9.29;45.59;94899.13;4998157;28;20003;-48
2023/02/13 13:27:03;;;;;;;;;;;;;;;9.30;44.55;94899.88;5008984;28;19918;-48
2023/02/13 13:29:28;;;;;;;;;;;;;;;8.52;47.87;94894.47;5007679;28;19924;-50
2023/02/13 13:31:58;;;;;;;;;;;;;;;8.22;49.11;94893.41;5018527;28;19964;-50
2023/02/13 13:34:24;;;;;;;;;;;;;;;8.45;48.46;94892.22;5009237;28;19928;-50
2023/02/13 13:36:49;;;;;;;;;;;;;;;8.23;48.30;94889.41;5008894;28;20309;-48
2023/02/13 13:39:23;;;;;;;;;;;;;;;8.39;49.43;94883.22;5009108;28;19924;-49